createdAt,value
2023-01-29T00:01:15.144Z,101932.41
2023-01-29T00:03:42.882Z,101894.34
2023-01-29T00:06:11.863Z,101931.78
2023-01-29T00:08:41.031Z,101924.38
2023-01-29T00:11:09.993Z,101925.09
2023-01-29T00:13:37.747Z,101929.00
2023-01-29T00:16:06.203Z,101901.88
2023-01-29T00:18:33.800Z,101922.72
2023-01-29T00:21:01.385Z,101919.94
2023-01-29T00:23:29.089Z,101923.75
2023-01-29T00:26:00.559Z,101928.19
2023-01-29T00:28:28.150Z,101922.59
2023-01-29T00:30:55.870Z,101929.72
2023-01-29T00:33:23.570Z,101896.28
2023-01-29T00:35:51.185Z,101927.16
2023-01-29T00:38:18.821Z,101922.72
2023-01-29T00:41:04.154Z,101915.16
2023-01-29T00:43:50.799Z,101911.75
2023-01-29T00:46:18.411Z,101905.56
2023-01-29T00:48:46.071Z,101907.94
2023-01-29T00:51:13.691Z,101905.25
2023-01-29T00:53:41.313Z,101898.56
2023-01-29T00:56:08.995Z,101902.47
2023-01-29T00:58:37.975Z,101896.19
2023-01-29T01:01:05.925Z,101890.81
2023-01-29T01:03:35.146Z,101887.50
2023-01-29T01:06:07.170Z,101853.78
2023-01-29T01:09:01.087Z,101804.66
2023-01-29T01:11:28.729Z,101880.81
2023-01-29T01:14:02.007Z,101873.25
2023-01-29T01:16:29.743Z,101877.91
2023-01-29T01:18:57.413Z,101886.88
2023-01-29T01:21:25.045Z,101895.66
2023-01-29T01:23:53.633Z,101899.28
2023-01-29T01:26:21.276Z,101906.69
2023-01-29T01:28:49.060Z,101905.84
2023-01-29T01:31:18.621Z,101916.28
2023-01-29T01:33:46.335Z,101914.44
2023-01-29T01:36:13.922Z,101924.00
2023-01-29T01:38:45.261Z,101923.81
2023-01-29T01:41:13.763Z,101917.44
2023-01-29T01:43:49.748Z,101920.84
2023-01-29T01:46:19.049Z,101912.56
2023-01-29T01:48:50.903Z,101911.34
2023-01-29T01:51:19.522Z,101915.78
2023-01-29T01:53:55.207Z,101920.84
2023-01-29T01:56:27.840Z,101921.66
2023-01-29T01:58:57.703Z,101929.41
2023-01-29T02:01:28.851Z,101933.13
2023-01-29T02:04:20.190Z,101928.44
2023-01-29T02:07:06.007Z,101941.78
2023-01-29T02:09:39.457Z,101933.53
2023-01-29T02:12:09.839Z,101926.94
2023-01-29T02:14:40.150Z,101932.41
2023-01-29T02:17:11.194Z,101922.78
2023-01-29T02:19:47.916Z,101919.50
2023-01-29T02:22:30.894Z,101916.69
2023-01-29T02:25:22.733Z,101926.31
2023-01-29T02:28:21.531Z,101930.34
2023-01-29T02:30:57.593Z,101930.13
2023-01-29T02:33:37.089Z,101940.78
2023-01-29T02:36:15.142Z,101935.63
2023-01-29T02:38:48.831Z,101942.75
2023-01-29T02:41:20.536Z,101941.72
2023-01-29T02:43:56.775Z,101906.41
2023-01-29T02:46:31.920Z,101929.94
2023-01-29T02:49:05.343Z,101936.72
2023-01-29T02:51:38.656Z,101933.44
2023-01-29T02:54:11.653Z,101936.44
2023-01-29T02:56:47.569Z,101935.19
2023-01-29T02:59:20.098Z,101922.91
2023-01-29T03:01:51.114Z,101910.84
2023-01-29T03:04:23.931Z,101921.75
2023-01-29T03:06:58.089Z,101917.31
2023-01-29T03:09:33.996Z,101920.34
2023-01-29T03:12:19.887Z,101911.56
2023-01-29T03:15:09.813Z,101913.31
2023-01-29T03:17:42.182Z,101910.75
2023-01-29T03:20:16.640Z,101905.25
2023-01-29T03:22:50.401Z,101893.59
2023-01-29T03:25:39.310Z,101860.72
2023-01-29T03:28:26.212Z,101888.97
2023-01-29T03:31:15.898Z,101879.78
2023-01-29T03:33:49.340Z,101833.84
2023-01-29T03:36:22.390Z,101849.94
2023-01-29T03:38:50.107Z,101857.06
2023-01-29T03:41:26.226Z,101844.16
2023-01-29T03:44:05.565Z,101843.88
2023-01-29T03:46:42.659Z,101840.47
2023-01-29T03:49:18.484Z,101843.25
2023-01-29T03:51:56.697Z,101827.34
2023-01-29T03:54:30.955Z,101825.19
2023-01-29T03:57:05.123Z,101828.66
2023-01-29T03:59:41.390Z,101830.63
2023-01-29T04:02:14.563Z,101831.47
2023-01-29T04:04:46.176Z,101832.06
2023-01-29T04:07:18.505Z,101828.81
2023-01-29T04:09:51.531Z,101828.81
2023-01-29T04:12:25.355Z,101830.66
2023-01-29T04:14:55.305Z,101825.28
2023-01-29T04:17:32.873Z,101822.09
2023-01-29T04:20:01.535Z,101821.16
2023-01-29T04:22:33.140Z,101820.53
2023-01-29T04:25:02.668Z,101820.75
2023-01-29T04:27:41.887Z,101808.97
2023-01-29T04:30:30.152Z,101811.44
2023-01-29T04:33:15.516Z,101791.88
2023-01-29T04:35:54.233Z,101799.34
2023-01-29T04:38:26.584Z,101797.13
2023-01-29T04:41:04.671Z,101794.72
2023-01-29T04:43:45.556Z,101789.50
2023-01-29T04:46:17.370Z,101797.81
2023-01-29T04:49:01.205Z,101797.84
2023-01-29T04:51:40.727Z,101796.19
2023-01-29T04:54:13.723Z,101791.22
2023-01-29T04:56:50.103Z,101786.16
2023-01-29T04:59:23.750Z,101781.66
2023-01-29T05:01:51.742Z,101781.28
2023-01-29T05:04:22.465Z,101781.31
2023-01-29T05:06:51.140Z,101780.91
2023-01-29T05:09:19.309Z,101782.47
2023-01-29T05:11:48.550Z,101779.63
2023-01-29T05:14:20.678Z,101778.81
2023-01-29T05:16:52.704Z,101781.41
2023-01-29T05:19:21.624Z,101785.63
2023-01-29T05:21:50.186Z,101795.84
2023-01-29T05:24:19.921Z,101790.19
2023-01-29T05:27:07.366Z,101783.78
2023-01-29T05:29:35.455Z,101788.66
2023-01-29T05:32:03.708Z,101790.50
2023-01-29T05:34:32.731Z,101783.59
2023-01-29T05:37:00.407Z,101777.41
2023-01-29T05:39:28.046Z,101792.25
2023-01-29T05:41:55.664Z,101799.06
2023-01-29T05:44:23.287Z,101806.63
2023-01-29T05:46:51.198Z,101796.09
2023-01-29T05:49:20.486Z,101801.03
2023-01-29T05:51:49.502Z,101791.75
2023-01-29T05:54:17.157Z,101788.53
2023-01-29T05:56:44.809Z,101777.22
2023-01-29T05:59:12.483Z,101779.66
2023-01-29T06:01:40.088Z,101771.78
2023-01-29T06:04:07.874Z,101769.59
2023-01-29T06:06:35.507Z,101778.59
2023-01-29T06:09:04.759Z,101762.13
2023-01-29T06:11:32.427Z,101751.38
2023-01-29T06:14:00.040Z,101773.44
2023-01-29T06:16:27.750Z,101764.81
2023-01-29T06:18:55.422Z,101761.31
2023-01-29T06:21:22.997Z,101770.69
2023-01-29T06:23:52.915Z,101765.16
2023-01-29T06:26:21.943Z,101751.94
2023-01-29T06:28:50.148Z,101755.53
2023-01-29T06:31:37.855Z,101763.06
2023-01-29T06:34:06.302Z,101756.97
2023-01-29T06:36:33.935Z,101756.03
2023-01-29T06:39:01.647Z,101745.31
2023-01-29T06:41:30.696Z,101751.13
2023-01-29T06:43:58.357Z,101756.59
2023-01-29T06:46:26.121Z,101749.53
2023-01-29T06:48:53.787Z,101753.50
2023-01-29T06:51:22.950Z,101752.25
2023-01-29T06:53:50.616Z,101750.50
2023-01-29T06:56:18.251Z,101743.38
2023-01-29T06:58:47.194Z,101740.38
2023-01-29T07:01:33.047Z,101734.72
2023-01-29T07:04:02.856Z,101719.97
2023-01-29T07:06:31.134Z,101719.88
2023-01-29T07:08:58.778Z,101720.06
2023-01-29T07:11:26.537Z,101727.69
2023-01-29T07:13:55.545Z,101730.91
2023-01-29T07:16:23.482Z,101732.22
2023-01-29T07:18:51.159Z,101735.97
2023-01-29T07:21:18.846Z,101750.09
2023-01-29T07:23:46.483Z,101745.56
2023-01-29T07:26:14.148Z,101746.78
2023-01-29T07:28:42.123Z,101746.88
2023-01-29T07:31:14.526Z,101745.94
2023-01-29T07:33:44.206Z,101736.97
2023-01-29T07:36:12.795Z,101749.47
2023-01-29T07:38:40.470Z,101739.03
2023-01-29T07:41:08.529Z,101732.41
2023-01-29T07:43:36.138Z,101744.63
2023-01-29T07:46:05.186Z,101743.47
2023-01-29T07:48:34.236Z,101733.06
2023-01-29T07:51:02.126Z,101735.53
2023-01-29T07:53:29.851Z,101724.59
2023-01-29T07:55:57.869Z,101730.47
2023-01-29T07:58:25.603Z,101720.50
2023-01-29T08:00:53.192Z,101716.34
2023-01-29T08:03:21.493Z,101706.63
2023-01-29T08:05:50.587Z,101712.09
2023-01-29T08:08:19.272Z,101707.47
2023-01-29T08:10:46.945Z,101724.59
2023-01-29T08:13:14.621Z,101728.94
2023-01-29T08:15:43.831Z,101727.69
2023-01-29T08:18:11.493Z,101724.16
2023-01-29T08:20:39.371Z,101732.59
2023-01-29T08:23:13.557Z,101732.19
2023-01-29T08:25:41.293Z,101737.16
2023-01-29T08:28:09.746Z,101732.81
2023-01-29T08:30:37.438Z,101724.25
2023-01-29T08:33:05.438Z,101732.00
2023-01-29T08:35:33.115Z,101725.59
2023-01-29T08:38:03.212Z,101727.75
2023-01-29T08:40:33.802Z,101719.81
2023-01-29T08:43:02.737Z,101737.16
2023-01-29T08:45:31.224Z,101717.53
2023-01-29T08:47:58.823Z,101707.84
2023-01-29T08:50:26.583Z,101705.63
2023-01-29T08:52:58.856Z,101716.66
2023-01-29T08:55:26.852Z,101712.06
2023-01-29T08:57:57.328Z,101712.94
2023-01-29T09:00:25.283Z,101708.81
2023-01-29T09:02:53.078Z,101707.34
2023-01-29T09:05:20.687Z,101713.66
2023-01-29T09:07:48.360Z,101706.50
2023-01-29T09:10:17.179Z,101711.41
2023-01-29T09:12:44.734Z,101706.09
2023-01-29T09:15:14.047Z,101702.50
2023-01-29T09:17:43.033Z,101707.84
2023-01-29T09:20:12.049Z,101700.03
2023-01-29T09:22:39.663Z,101705.75
2023-01-29T09:25:08.636Z,101711.88
2023-01-29T09:27:36.286Z,101722.72
2023-01-29T09:30:04.579Z,101721.34
2023-01-29T09:32:53.688Z,101711.41
2023-01-29T09:35:22.483Z,101710.56
2023-01-29T09:37:50.148Z,101710.03
2023-01-29T09:40:25.646Z,101725.75
2023-01-29T09:42:59.028Z,101714.59
2023-01-29T09:45:29.316Z,101727.88
2023-01-29T09:48:01.425Z,101709.47
2023-01-29T09:50:33.445Z,101707.59
2023-01-29T09:53:06.147Z,101706.31
2023-01-29T09:55:38.533Z,101718.03
2023-01-29T09:58:13.009Z,101715.13
2023-01-29T10:00:58.205Z,101681.47
2023-01-29T10:03:45.026Z,101703.53
2023-01-29T10:06:38.424Z,101691.41
2023-01-29T10:09:38.759Z,101687.78
2023-01-29T10:12:24.373Z,101603.09
2023-01-29T10:15:01.320Z,101655.94
2023-01-29T10:17:49.585Z,101706.69
2023-01-29T10:20:35.164Z,101660.63
2023-01-29T10:23:17.229Z,101686.94
2023-01-29T10:25:47.842Z,101678.53
2023-01-29T10:28:19.775Z,101589.16
2023-01-29T10:30:51.108Z,101664.53
2023-01-29T10:33:26.278Z,101509.88
2023-01-29T10:35:59.492Z,101673.72
2023-01-29T10:38:38.560Z,101668.28
2023-01-29T10:41:23.576Z,101665.81
2023-01-29T10:44:06.131Z,101643.28
2023-01-29T10:46:48.752Z,101635.31
2023-01-29T10:49:29.021Z,101659.75
2023-01-29T10:52:11.238Z,101654.00
2023-01-29T10:54:52.451Z,101658.25
2023-01-29T10:57:31.738Z,101529.78
2023-01-29T11:00:12.748Z,101639.06
2023-01-29T11:02:45.804Z,101631.06
2023-01-29T11:05:21.642Z,101612.75
2023-01-29T11:08:00.926Z,101600.19
2023-01-29T11:10:29.568Z,101596.91
2023-01-29T11:12:58.610Z,101442.13
2023-01-29T11:15:30.688Z,101622.19
2023-01-29T11:18:13.687Z,101619.84
2023-01-29T11:20:42.525Z,101626.78
2023-01-29T11:23:25.877Z,101619.41
2023-01-29T11:25:55.165Z,101615.50
2023-01-29T11:28:40.915Z,101554.19
2023-01-29T11:31:20.684Z,101606.59
2023-01-29T11:33:49.565Z,101604.00
2023-01-29T11:36:28.561Z,101597.31
2023-01-29T11:39:21.393Z,101513.53
2023-01-29T11:41:51.456Z,101512.50
2023-01-29T11:44:28.811Z,101529.44
2023-01-29T11:47:11.486Z,101551.38
2023-01-29T11:49:42.795Z,101558.78
2023-01-29T11:52:12.396Z,101538.34
2023-01-29T11:54:48.089Z,101543.28
2023-01-29T11:57:27.556Z,101532.72
2023-01-29T11:59:58.106Z,101524.28
2023-01-29T12:02:31.617Z,101517.69
2023-01-29T12:05:03.729Z,101507.72
2023-01-29T12:07:32.561Z,101501.75
2023-01-29T12:10:01.506Z,101495.25
2023-01-29T12:12:36.233Z,101488.09
2023-01-29T12:15:07.045Z,101477.19
2023-01-29T12:17:39.159Z,101477.88
2023-01-29T12:20:15.266Z,101469.06
2023-01-29T12:22:51.551Z,101462.53
2023-01-29T12:25:24.298Z,101423.44
2023-01-29T12:28:00.915Z,101454.78
2023-01-29T12:30:32.788Z,101453.59
2023-01-29T12:33:07.241Z,101453.47
2023-01-29T12:35:39.321Z,101434.09
2023-01-29T12:38:21.659Z,101425.16
2023-01-29T12:40:55.210Z,101428.94
2023-01-29T12:43:28.601Z,101415.19
2023-01-29T12:45:58.083Z,101410.13
2023-01-29T12:48:29.481Z,101402.38
2023-01-29T12:51:04.120Z,101400.22
2023-01-29T12:53:36.144Z,101379.56
2023-01-29T12:56:11.722Z,101368.84
2023-01-29T12:58:44.350Z,101334.56
2023-01-29T13:01:17.295Z,101337.22
2023-01-29T13:03:51.689Z,101340.72
2023-01-29T13:06:23.996Z,101333.91
2023-01-29T13:08:54.850Z,101335.91
2023-01-29T13:11:29.149Z,101323.25
2023-01-29T13:14:02.155Z,101319.56
2023-01-29T13:16:34.087Z,101308.81
2023-01-29T13:19:04.744Z,101301.34
2023-01-29T13:21:38.867Z,101305.34
2023-01-29T13:24:14.017Z,101313.59
2023-01-29T13:26:46.501Z,101297.56
2023-01-29T13:29:23.654Z,101302.56
2023-01-29T13:31:53.319Z,101274.25
2023-01-29T13:34:25.741Z,101284.00
2023-01-29T13:36:56.810Z,101292.16
2023-01-29T13:39:28.575Z,101293.28
2023-01-29T13:41:59.379Z,101292.56
2023-01-29T13:44:29.333Z,101287.59
2023-01-29T13:46:59.844Z,101274.81
2023-01-29T13:49:36.324Z,101285.63
2023-01-29T13:52:22.839Z,101282.31
2023-01-29T13:54:57.192Z,101280.41
2023-01-29T13:57:47.296Z,101275.13
2023-01-29T14:00:57.010Z,101270.19
2023-01-29T14:04:04.827Z,101275.69
2023-01-29T14:06:57.505Z,101257.16
2023-01-29T14:09:56.980Z,101265.72
2023-01-29T14:12:37.379Z,101257.59
2023-01-29T14:15:22.188Z,101259.38
2023-01-29T14:18:05.698Z,101243.97
2023-01-29T14:20:45.685Z,101244.69
2023-01-29T14:23:25.063Z,101250.84
2023-01-29T14:25:52.873Z,101253.78
2023-01-29T14:28:25.577Z,101253.03
2023-01-29T14:30:53.682Z,101256.66
2023-01-29T14:33:33.941Z,101253.91
2023-01-29T14:36:06.393Z,101166.09
2023-01-29T14:38:34.841Z,101235.06
2023-01-29T14:41:19.814Z,101237.66
2023-01-29T14:43:48.939Z,101232.72
2023-01-29T14:46:45.823Z,101225.25
2023-01-29T14:49:13.532Z,101212.31
2023-01-29T14:51:45.550Z,101207.97
2023-01-29T14:54:26.295Z,101218.72
2023-01-29T14:56:59.637Z,101218.47
2023-01-29T14:59:34.951Z,101213.91
2023-01-29T15:02:11.944Z,101209.34
2023-01-29T15:04:45.536Z,101215.06
2023-01-29T15:07:24.223Z,101223.19
2023-01-29T15:10:13.256Z,101210.13
2023-01-29T15:12:49.575Z,101199.78
2023-01-29T15:15:27.441Z,101196.50
2023-01-29T15:18:00.784Z,101191.63
2023-01-29T15:20:33.944Z,101190.13
2023-01-29T15:23:03.211Z,101190.00
2023-01-29T15:25:36.973Z,101186.44
2023-01-29T15:28:08.571Z,101184.25
2023-01-29T15:30:39.165Z,101178.91
2023-01-29T15:33:11.444Z,101181.50
2023-01-29T15:35:41.834Z,101136.41
2023-01-29T15:38:17.291Z,101168.56
2023-01-29T15:40:53.293Z,101155.38
2023-01-29T15:43:23.402Z,101149.53
2023-01-29T15:45:54.619Z,101155.09
2023-01-29T15:48:29.234Z,101158.19
2023-01-29T15:50:57.875Z,101157.78
2023-01-29T15:53:30.978Z,101154.94
2023-01-29T15:56:00.016Z,101144.19
2023-01-29T15:58:34.712Z,101145.94
2023-01-29T16:01:04.798Z,101105.03
2023-01-29T16:03:34.983Z,101137.19
2023-01-29T16:06:03.362Z,101082.78
2023-01-29T16:08:31.404Z,101120.19
2023-01-29T16:11:01.729Z,101106.53
2023-01-29T16:13:31.779Z,101098.91
2023-01-29T16:16:01.498Z,101083.09
2023-01-29T16:18:35.982Z,101071.66
2023-01-29T16:21:08.755Z,101058.34
2023-01-29T16:38:37.057Z,100990.25
2023-01-29T16:41:15.783Z,100974.19
2023-01-29T16:43:48.019Z,100969.28
2023-01-29T16:46:20.449Z,100952.56
2023-01-29T16:48:48.543Z,100947.66
2023-01-29T16:51:23.315Z,100945.88
2023-01-29T16:53:58.008Z,100924.41
2023-01-29T16:56:28.432Z,100924.66
2023-01-29T16:58:56.659Z,100901.09
2023-01-29T17:01:27.635Z,100912.00
2023-01-29T17:04:01.694Z,100902.09
2023-01-29T17:06:32.279Z,100918.94
2023-01-29T17:09:01.928Z,100894.47
2023-01-29T17:11:35.736Z,100904.00
2023-01-29T17:14:04.053Z,100902.22
2023-01-29T17:16:37.479Z,100901.28
2023-01-29T17:19:17.748Z,100898.28
2023-01-29T17:21:45.867Z,100896.25
2023-01-29T17:24:15.009Z,100886.34
2023-01-29T17:26:43.277Z,100885.78
2023-01-29T17:29:15.419Z,100883.59
2023-01-29T17:31:43.269Z,100840.06
2023-01-29T17:34:14.375Z,100887.69
2023-01-29T17:36:42.162Z,100884.41
2023-01-29T17:39:19.376Z,100902.63
2023-01-29T17:41:52.059Z,100890.25
2023-01-29T17:44:19.696Z,100895.31
2023-01-29T17:46:47.924Z,100878.72
2023-01-29T17:49:23.485Z,100876.28
2023-01-29T17:51:54.341Z,100889.44
2023-01-29T17:54:25.496Z,100886.19
2023-01-29T17:56:54.270Z,100896.13
2023-01-29T17:59:22.508Z,100899.22
2023-01-29T18:01:50.943Z,100898.16
2023-01-29T18:04:19.162Z,100888.38
2023-01-29T18:06:50.061Z,100889.44
2023-01-29T18:09:20.370Z,100878.97
2023-01-29T18:11:50.629Z,100863.59
2023-01-29T18:14:18.604Z,100858.84
2023-01-29T18:16:46.649Z,100886.19
2023-01-29T18:19:17.503Z,100881.97
2023-01-29T18:21:45.192Z,100877.34
2023-01-29T18:24:12.881Z,100861.03
2023-01-29T18:26:40.542Z,100860.78
2023-01-29T18:29:10.114Z,100849.63
2023-01-29T18:31:37.924Z,100851.50
2023-01-29T18:34:05.582Z,100832.09
2023-01-29T18:36:33.272Z,100831.53
2023-01-29T18:39:00.984Z,100829.22
2023-01-29T18:41:28.653Z,100823.66
2023-01-29T18:43:56.459Z,100813.31
2023-01-29T18:46:25.470Z,100763.41
2023-01-29T18:48:53.160Z,100800.41
2023-01-29T18:51:20.804Z,100796.19
2023-01-29T18:53:51.079Z,100788.81
2023-01-29T18:56:19.257Z,100769.41
2023-01-29T18:58:52.296Z,100760.56
2023-01-29T19:01:23.471Z,100759.63
2023-01-29T19:03:56.052Z,100741.81
2023-01-29T19:06:23.680Z,100744.91
2023-01-29T19:08:51.497Z,100737.84
2023-01-29T19:11:19.260Z,100745.34
2023-01-29T19:13:48.019Z,100750.63
2023-01-29T19:16:15.818Z,100738.66
2023-01-29T19:18:52.608Z,100728.69
2023-01-29T19:21:21.598Z,100728.72
2023-01-29T19:23:49.189Z,100743.16
2023-01-29T19:26:17.355Z,100729.09
2023-01-29T19:28:45.073Z,100723.28
2023-01-29T19:31:12.809Z,100711.84
2023-01-29T19:33:40.610Z,100712.00
2023-01-29T19:36:08.895Z,100716.09
2023-01-29T19:38:38.820Z,100712.13
2023-01-29T19:41:06.633Z,100704.81
2023-01-29T19:43:34.475Z,100717.16
2023-01-29T19:46:02.869Z,100708.75
2023-01-29T19:48:30.627Z,100712.41
2023-01-29T19:51:00.051Z,100707.78
2023-01-29T19:53:31.553Z,100701.53
2023-01-29T19:56:12.729Z,100690.78
2023-01-29T19:58:40.436Z,100702.63
2023-01-29T20:01:16.053Z,100715.53
2023-01-29T20:03:46.478Z,100680.50
2023-01-29T20:06:15.399Z,100680.69
2023-01-29T20:08:45.996Z,100672.97
2023-01-29T20:11:15.454Z,100689.16
2023-01-29T20:13:43.452Z,100695.97
2023-01-29T20:16:11.125Z,100679.38
2023-01-29T20:18:38.788Z,100678.81
2023-01-29T20:21:09.489Z,100667.66
2023-01-29T20:23:38.939Z,100664.13
2023-01-29T20:26:09.037Z,100644.41
2023-01-29T20:28:38.397Z,100665.50
2023-01-29T20:31:06.811Z,100654.34
2023-01-29T20:33:34.692Z,100654.53
2023-01-29T20:36:04.417Z,100666.00
2023-01-29T20:38:34.531Z,100648.47
2023-01-29T20:41:06.523Z,100646.69
2023-01-29T20:43:34.687Z,100636.06
2023-01-29T20:46:04.074Z,100643.00
2023-01-29T20:48:32.334Z,100641.91
2023-01-29T20:51:09.364Z,100628.31
2023-01-29T20:53:37.829Z,100575.47
2023-01-29T20:56:06.376Z,100591.00
2023-01-29T20:58:34.513Z,100581.31
2023-01-29T21:01:08.324Z,100579.25
2023-01-29T21:03:43.908Z,100584.06
2023-01-29T21:06:12.365Z,100573.94
2023-01-29T21:08:40.915Z,100570.69
2023-01-29T21:11:10.093Z,100558.19
2023-01-29T21:13:38.238Z,100561.00
2023-01-29T21:16:10.602Z,100506.91
2023-01-29T21:18:38.523Z,100549.44
2023-01-29T21:21:06.623Z,100511.91
2023-01-29T21:23:34.275Z,100514.72
2023-01-29T21:26:03.602Z,100483.31
2023-01-29T21:28:31.467Z,100473.34
2023-01-29T21:31:10.015Z,100473.50
2023-01-29T21:33:38.050Z,100470.00
2023-01-29T21:36:06.847Z,100446.75
2023-01-29T21:38:34.488Z,100415.56
2023-01-29T21:41:03.003Z,100390.25
2023-01-29T21:43:29.673Z,100359.06
2023-01-29T21:45:57.839Z,100340.75
2023-01-29T21:48:27.293Z,100307.13
2023-01-29T21:50:54.925Z,100277.72
2023-01-29T21:53:22.708Z,100255.41
2023-01-29T21:55:50.368Z,100237.97
2023-01-29T21:58:19.837Z,100197.56
2023-01-29T22:00:49.571Z,100186.28
2023-01-29T22:03:17.591Z,100166.56
2023-01-29T22:05:46.540Z,100166.25
2023-01-29T22:08:14.872Z,100167.72
2023-01-29T22:10:42.629Z,100152.81
2023-01-29T22:13:10.300Z,100102.59
2023-01-29T22:15:37.984Z,100085.13
2023-01-29T22:18:06.086Z,100058.31
2023-01-29T22:20:33.814Z,100041.16
2023-01-29T22:23:05.211Z,100025.34
2023-01-29T22:25:33.494Z,100025.19
2023-01-29T22:28:01.113Z,100034.38
2023-01-29T22:30:28.895Z,100010.63
2023-01-29T22:32:56.554Z,99984.47
2023-01-29T22:35:24.214Z,99972.34
2023-01-29T22:37:51.941Z,99973.31
2023-01-29T22:40:21.206Z,99952.59
2023-01-29T22:42:48.905Z,99933.19
2023-01-29T22:45:16.814Z,99928.66
2023-01-29T22:47:44.533Z,99914.75
2023-01-29T22:50:13.293Z,99908.91
2023-01-29T22:52:42.383Z,99907.63
2023-01-29T22:55:11.937Z,99897.13
2023-01-29T22:57:41.225Z,99904.03
2023-01-29T23:00:12.320Z,99897.03
2023-01-29T23:02:40.028Z,99866.88
2023-01-29T23:05:08.697Z,99857.78
2023-01-29T23:07:36.358Z,99851.16
2023-01-29T23:10:04.326Z,99849.00
2023-01-29T23:12:32.093Z,99844.16
2023-01-29T23:15:01.080Z,99829.22
2023-01-29T23:17:28.743Z,99829.56
2023-01-29T23:19:56.391Z,99820.13
2023-01-29T23:22:24.232Z,99816.75
2023-01-29T23:24:52.040Z,99804.13
2023-01-29T23:27:18.745Z,99773.22
2023-01-29T23:29:48.304Z,99753.88
2023-01-29T23:32:19.276Z,99747.78
2023-01-29T23:34:47.050Z,99738.25
2023-01-29T23:37:14.903Z,99736.25
2023-01-29T23:39:42.581Z,99720.50
2023-01-29T23:42:10.178Z,99703.38
2023-01-29T23:44:37.832Z,99689.53
2023-01-29T23:47:05.608Z,99679.81
2023-01-29T23:49:34.652Z,99674.91
2023-01-29T23:52:02.280Z,99656.75
2023-01-29T23:54:30.179Z,99652.19
2023-01-29T23:56:57.874Z,99655.03
2023-01-29T23:59:28.065Z,99660.03
